aviador You're here:

OEJN Decoded Metar

JEDDAH in SAUDI ARABIA
Report Time2017-08-23 04:00:00
UTC Time2017-08-23 04:11:18
Flight Rules vfr VFR
Wind010° at 06 kt
W.Decomp.*RWY 34: 5.3 kt HW 2.7 kt RCW
W.Rank010° ranks 11
Current wind is below 010° avg. (6.4)
Visibility9999 m
Phenomena:N/A
Clouds:N/A
Expected CloudBase > 2,800 ft AGL from Temp-Dew spread
CeilingNone
Temp32°C (ISA +17)
Dew Point25°C (67% RH)
Heat Index39.3°C
QNH0999 hPa
Density Alt2,887 ft
Elevation49 ft
Report Wrong Elevation
Raw Report
OEJN 230400Z 01006KT CAVOK 32/25 Q0999 NOSIG=

Extra information for OEJN:More info

Metar Taf Metar & Taf Last 4 Metars F.Rules Stats Wind Profile Meteogram Temp Stats Airport Information Weather charts Add Link Nearby VenuesMetar ALERT Operation Metar Decoded Social comments